Time;durP1;ratioP1;P1;durP2;ratioP2;P2;SDS_P1;SDS_P2;PMS_P1;PMS_P2;Temp;Humidity;BMP_temperature;BMP_pressure;BME280_temperature;BME280_humidity;BME280_pressure;Samples;Min_cycle;Max_cycle;Signal;HPM_P1;HPM_P2
2021/12/05 00:20:51;;;;;;;22.37;19.37;;;1.60;52.80;;;;;;6286088;28;20247;-58
2021/12/05 00:23:59;;;;;;;25.77;20.20;;;1.80;53.60;;;;;;6282328;28;20334;-56
2021/12/05 00:27:12;;;;;;;26.33;20.27;;;1.80;53.10;;;;;;6269646;28;20233;-57
2021/12/05 00:30:46;;;;;;;27.50;20.53;;;1.90;54.20;;;;;;6287330;28;20728;-55
2021/12/05 00:34:01;;;;;;;24.17;19.33;;;1.70;53.70;;;;;;6278993;28;20304;-55
2021/12/05 00:40:50;;;;;;;24.17;19.73;;;1.70;54.70;;;;;;6286855;28;20620;-55
2021/12/05 00:47:35;;;;;;;22.67;19.43;;;1.80;54.70;;;;;;6273659;28;20300;-56
2021/12/05 00:51:06;;;;;;;25.10;19.77;;;1.70;54.20;;;;;;6278533;28;20371;-54
2021/12/05 00:57:48;;;;;;;22.87;18.90;;;1.50;54.60;;;;;;6287431;28;20694;-55
2021/12/05 01:01:22;;;;;;;26.03;19.10;;;1.50;55.20;;;;;;6279642;28;20699;-55
2021/12/05 01:04:39;;;;;;;27.73;19.57;;;1.60;55.60;;;;;;6286394;28;20238;-56
2021/12/05 01:11:15;;;;;;;22.87;18.57;;;1.50;55.90;;;;;;6229419;28;20811;-57
2021/12/05 01:14:30;;;;;;;21.03;18.20;;;1.40;55.50;;;;;;6286597;28;20868;-56
2021/12/05 01:17:44;;;;;;;22.40;18.33;;;1.60;56.20;;;;;;6283947;28;20224;-57
2021/12/05 01:20:54;;;;;;;21.33;18.10;;;1.50;56.00;;;;;;6286689;28;20294;-57
2021/12/05 01:24:03;;;;;;;24.77;19.53;;;1.70;56.00;;;;;;6286160;28;20368;-55
2021/12/05 01:27:13;;;;;;;22.73;18.57;;;1.50;55.40;;;;;;6287585;28;20629;-59
2021/12/05 01:30:25;;;;;;;29.23;22.53;;;1.70;56.10;;;;;;6286852;28;20708;-55
2021/12/05 01:33:38;;;;;;;25.00;20.37;;;1.70;55.50;;;;;;6286404;28;20241;-55
2021/12/05 01:36:52;;;;;;;27.10;19.40;;;1.60;56.10;;;;;;6287341;28;20490;-56
2021/12/05 01:46:58;;;;;;;23.77;19.50;;;1.60;55.80;;;;;;6286507;28;20374;-56
2021/12/05 01:50:30;;;;;;;22.93;19.90;;;1.60;56.30;;;;;;6281950;28;20221;-54
2021/12/05 01:53:51;;;;;;;22.87;19.20;;;1.60;55.70;;;;;;6291173;28;20565;-55
2021/12/05 01:57:19;;;;;;;22.80;19.13;;;1.80;55.70;;;;;;6284444;28;20246;-57
2021/12/05 02:00:56;;;;;;;21.20;18.93;;;1.90;55.80;;;;;;6288561;28;20700;-56
2021/12/05 02:07:56;;;;;;;24.13;20.90;;;1.80;56.60;;;;;;6233872;28;20245;-56
2021/12/05 02:31:33;;;;;;;29.50;23.40;;;1.70;55.70;;;;;;6282751;28;20306;-56
2021/12/05 02:34:47;;;;;;;29.70;23.60;;;1.60;56.20;;;;;;6283024;28;20253;-55
2021/12/05 02:38:34;;;;;;;30.70;23.60;;;1.60;56.40;;;;;;6284968;28;20380;-56
2021/12/05 02:41:39;;;;;;;28.80;23.77;;;1.80;55.60;;;;;;6290886;28;20312;-56
2021/12/05 02:44:43;;;;;;;32.33;24.80;;;1.60;55.70;;;;;;6290822;28;20312;-57
2021/12/05 02:47:50;;;;;;;27.70;23.10;;;1.80;56.80;;;;;;6291359;28;20233;-57
2021/12/05 02:50:53;;;;;;;32.93;26.00;;;1.80;55.70;;;;;;6284402;28;20364;-57
2021/12/05 02:54:05;;;;;;;34.43;25.07;;;1.50;56.20;;;;;;6285233;28;20308;-56
2021/12/05 02:57:08;;;;;;;34.80;25.30;;;1.50;56.50;;;;;;6291364;28;20238;-56
2021/12/05 03:00:19;;;;;;;33.93;23.50;;;1.70;56.70;;;;;;6290618;28;20551;-55
2021/12/05 03:03:25;;;;;;;36.93;26.53;;;1.80;56.00;;;;;;6290377;28;20275;-58
2021/12/05 03:06:32;;;;;;;37.93;26.03;;;1.70;56.50;;;;;;6283266;28;20737;-56
2021/12/05 03:09:38;;;;;;;32.73;25.87;;;1.50;56.20;;;;;;6282585;28;20374;-56
2021/12/05 03:12:42;;;;;;;37.63;26.20;;;1.60;55.60;;;;;;6290663;28;20299;-56
2021/12/05 03:15:45;;;;;;;34.80;26.00;;;1.70;55.80;;;;;;6286212;28;20380;-57
2021/12/05 03:18:49;;;;;;;32.23;24.63;;;1.70;55.80;;;;;;6290296;28;20236;-56
2021/12/05 03:21:54;;;;;;;38.13;27.73;;;1.70;55.90;;;;;;6289425;28;20316;-55
2021/12/05 03:24:58;;;;;;;32.33;25.53;;;1.80;56.40;;;;;;6285084;28;20702;-57
2021/12/05 03:28:01;;;;;;;34.37;27.67;;;1.70;56.50;;;;;;6290290;28;20230;-56
2021/12/05 03:31:05;;;;;;;36.43;27.40;;;1.50;56.50;;;;;;6288922;28;20237;-56
2021/12/05 03:34:10;;;;;;;38.40;28.63;;;1.80;55.80;;;;;;6286735;28;20304;-57
2021/12/05 03:37:13;;;;;;;36.33;28.63;;;1.80;56.40;;;;;;6289978;28;20637;-55
2021/12/05 03:40:20;;;;;;;36.57;27.97;;;1.80;56.00;;;;;;6281528;28;20229;-55
2021/12/05 03:43:23;;;;;;;39.47;29.57;;;1.80;55.90;;;;;;6289290;28;20291;-56
2021/12/05 03:46:26;;;;;;;38.13;27.80;;;1.60;55.90;;;;;;6288705;28;20667;-55
2021/12/05 03:49:29;;;;;;;44.63;29.30;;;1.50;56.20;;;;;;6276599;28;20237;-57
2021/12/05 03:52:33;;;;;;;35.80;27.47;;;1.70;55.90;;;;;;6288629;28;20261;-56
2021/12/05 03:55:43;;;;;;;36.97;27.73;;;1.60;55.60;;;;;;6289194;28;20747;-56
2021/12/05 03:58:46;;;;;;;41.13;28.03;;;1.80;55.90;;;;;;6287967;28;20244;-56
2021/12/05 04:01:49;;;;;;;39.73;28.93;;;1.70;55.90;;;;;;6288863;28;20539;-56
2021/12/05 04:04:52;;;;;;;40.67;28.67;;;1.60;55.50;;;;;;6288990;28;20521;-55
2021/12/05 04:07:55;;;;;;;37.60;27.43;;;2.00;56.00;;;;;;6289137;28;20390;-56
2021/12/05 04:11:03;;;;;;;41.37;28.90;;;1.70;55.60;;;;;;6287941;28;20312;-56
2021/12/05 04:14:08;;;;;;;42.60;30.53;;;1.80;55.60;;;;;;6287205;28;20262;-54
2021/12/05 04:17:13;;;;;;;35.87;27.50;;;1.70;55.90;;;;;;6280771;28;20261;-56
2021/12/05 04:20:17;;;;;;;38.90;28.03;;;1.60;55.90;;;;;;6285684;28;20229;-57
2021/12/05 04:23:20;;;;;;;39.97;28.93;;;1.90;56.20;;;;;;6288325;28;20643;-57
2021/12/05 04:26:25;;;;;;;40.53;29.10;;;1.70;56.10;;;;;;6281143;28;20241;-57
2021/12/05 04:29:28;;;;;;;36.03;26.97;;;1.70;56.00;;;;;;6288294;28;20237;-56
2021/12/05 04:32:31;;;;;;;39.47;27.67;;;1.60;55.50;;;;;;6269253;28;20230;-55
2021/12/05 04:35:34;;;;;;;38.67;28.50;;;1.80;56.10;;;;;;6291073;28;20535;-56
2021/12/05 04:38:37;;;;;;;35.30;25.77;;;1.70;55.70;;;;;;6287362;28;20229;-55
2021/12/05 04:41:43;;;;;;;40.73;27.97;;;1.70;56.30;;;;;;6284123;28;20935;-56
2021/12/05 04:44:45;;;;;;;37.63;27.43;;;1.80;56.30;;;;;;6282365;28;20233;-55
2021/12/05 04:47:49;;;;;;;37.70;28.17;;;1.80;55.70;;;;;;6285596;28;20298;-57
2021/12/05 04:50:52;;;;;;;41.03;27.67;;;1.90;56.20;;;;;;6289239;28;20229;-56
2021/12/05 04:53:56;;;;;;;42.83;28.80;;;1.70;55.90;;;;;;6281496;28;20264;-55
2021/12/05 04:57:00;;;;;;;37.73;27.20;;;1.80;56.50;;;;;;6288175;28;20816;-55
2021/12/05 05:00:05;;;;;;;39.47;28.50;;;1.80;56.50;;;;;;6284381;28;20234;-56
2021/12/05 05:03:10;;;;;;;37.20;26.40;;;1.70;56.40;;;;;;6276943;28;20233;-55
2021/12/05 05:06:15;;;;;;;39.07;28.00;;;1.80;56.60;;;;;;6276893;28;20658;-59
2021/12/05 05:09:18;;;;;;;47.70;28.80;;;1.80;55.60;;;;;;6286173;28;20245;-56
2021/12/05 05:12:23;;;;;;;40.93;28.70;;;1.80;56.60;;;;;;6283827;28;20302;-56
2021/12/05 05:15:28;;;;;;;37.00;27.00;;;1.80;56.60;;;;;;6277569;28;20244;-56
2021/12/05 05:18:39;;;;;;;37.20;27.63;;;1.90;55.70;;;;;;6278329;28;20241;-56
2021/12/05 05:21:48;;;;;;;36.47;27.83;;;1.90;55.90;;;;;;6287705;28;20244;-57
2021/12/05 05:28:53;;;;;;;34.13;24.80;;;2.00;55.80;;;;;;6290924;28;20234;-56
2021/12/05 05:42:23;;;;;;;38.33;27.20;;;2.00;55.90;;;;;;6291481;28;20328;-57
2021/12/05 05:48:51;;;;;;;41.50;28.43;;;1.90;56.40;;;;;;6283889;28;20233;-55
2021/12/05 05:51:54;;;;;;;44.57;28.80;;;1.80;55.70;;;;;;6288316;28;20319;-57
2021/12/05 05:54:58;;;;;;;39.90;29.20;;;1.70;55.60;;;;;;6288629;28;20617;-56
2021/12/05 05:58:06;;;;;;;43.13;28.73;;;2.10;56.50;;;;;;6288552;28;20320;-56
2021/12/05 06:01:19;;;;;;;38.73;28.37;;;2.10;56.00;;;;;;6289795;28;20367;-56
2021/12/05 06:04:22;;;;;;;41.80;28.77;;;2.00;56.40;;;;;;6289817;28;20288;-52
2021/12/05 06:07:26;;;;;;;44.63;29.90;;;1.90;55.80;;;;;;6285512;28;20735;-55
2021/12/05 06:10:31;;;;;;;47.70;30.73;;;2.00;55.80;;;;;;6290729;28;20271;-57
2021/12/05 06:13:35;;;;;;;40.93;28.70;;;1.90;56.40;;;;;;6290639;28;20243;-57
2021/12/05 06:16:39;;;;;;;41.50;28.93;;;2.00;55.90;;;;;;6285899;28;20368;-56
2021/12/05 06:19:42;;;;;;;45.20;30.03;;;2.10;55.90;;;;;;6283418;28;20230;-57
2021/12/05 06:22:46;;;;;;;45.40;31.57;;;2.00;55.80;;;;;;6285522;28;20256;-55
2021/12/05 06:25:51;;;;;;;44.93;30.40;;;1.90;55.90;;;;;;6289500;28;20664;-56
2021/12/05 06:29:01;;;;;;;45.93;31.43;;;1.90;56.10;;;;;;6288450;28;20255;-57
2021/12/05 06:32:34;;;;;;;42.50;28.77;;;2.00;55.60;;;;;;6288809;28;20318;-56
2021/12/05 06:42:47;;;;;;;45.37;31.00;;;1.90;55.40;;;;;;6283669;28;20261;-60
2021/12/05 06:46:01;;;;;;;47.53;32.10;;;2.20;55.40;;;;;;6277012;28;20332;-57
2021/12/05 06:49:06;;;;;;;47.10;30.97;;;2.10;54.60;;;;;;6283836;28;20232;-56
2021/12/05 06:52:09;;;;;;;49.47;31.20;;;1.80;54.40;;;;;;6286707;28;20282;-56
2021/12/05 06:55:14;;;;;;;48.10;30.67;;;2.00;55.30;;;;;;6288554;28;20261;-56
2021/12/05 06:58:16;;;;;;;46.00;30.43;;;2.10;55.40;;;;;;6286664;28;20604;-57
2021/12/05 07:01:19;;;;;;;46.67;30.23;;;1.80;55.40;;;;;;6288131;28;20233;-57
2021/12/05 07:04:49;;;;;;;53.20;30.83;;;1.90;54.70;;;;;;6287246;28;20225;-57
2021/12/05 07:07:51;;;;;;;45.80;30.47;;;1.90;54.70;;;;;;6284236;28;20642;-57
2021/12/05 07:11:00;;;;;;;42.20;27.93;;;1.90;54.80;;;;;;6280953;28;20745;-57
2021/12/05 07:20:49;;;;;;;48.77;31.17;;;2.00;55.20;;;;;;6286965;28;20229;-57
2021/12/05 07:24:01;;;;;;;46.87;29.97;;;2.00;55.30;;;;;;6281822;28;20841;-57
2021/12/05 07:40:19;;;;;;;41.53;28.63;;;2.00;55.50;;;;;;6289353;28;20272;-56
2021/12/05 07:40:47;;;;;;;43.80;28.93;;;2.00;54.30;;;;;;6264278;28;20225;-56
2021/12/05 07:43:50;;;;;;;42.40;28.97;;;2.00;54.60;;;;;;6285321;28;20258;-59
2021/12/05 07:46:52;;;;;;;42.30;29.97;;;2.00;54.30;;;;;;6282777;28;20276;-55
2021/12/05 07:49:56;;;;;;;47.03;30.30;;;1.80;54.90;;;;;;6278915;28;20835;-57
2021/12/05 07:53:07;;;;;;;45.07;31.87;;;1.90;54.30;;;;;;6285070;28;20721;-57
2021/12/05 07:56:15;;;;;;;46.03;29.40;;;1.90;54.00;;;;;;6274425;28;20326;-57
2021/12/05 07:59:36;;;;;;;43.53;30.37;;;1.90;54.30;;;;;;6282242;28;20625;-56
2021/12/05 08:16:07;;;;;;;44.40;30.17;;;1.80;54.30;;;;;;6278301;28;20739;-57
2021/12/05 08:19:15;;;;;;;46.63;30.10;;;1.90;53.70;;;;;;6284041;28;20891;-60
2021/12/05 08:22:19;;;;;;;40.83;27.77;;;2.00;54.70;;;;;;6284372;28;20701;-58
2021/12/05 08:25:27;;;;;;;47.47;30.20;;;1.90;53.90;;;;;;6276415;28;20265;-57
2021/12/05 08:28:48;;;;;;;51.13;31.67;;;1.90;54.70;;;;;;6283941;28;20237;-57
2021/12/05 08:32:10;;;;;;;49.33;31.90;;;2.10;54.40;;;;;;6268280;28;20226;-57
2021/12/05 08:35:23;;;;;;;56.73;33.63;;;1.90;53.90;;;;;;6280580;28;20627;-57
2021/12/05 08:42:06;;;;;;;45.93;31.03;;;2.00;53.50;;;;;;6283625;28;20233;-57
2021/12/05 08:45:47;;;;;;;42.77;28.47;;;2.00;54.30;;;;;;6272502;28;20229;-54
2021/12/05 09:26:17;;;;;;;48.23;32.23;;;2.30;53.90;;;;;;6275650;28;20620;-57
2021/12/05 10:03:36;;;;;;;53.47;34.77;;;2.40;52.40;;;;;;6142591;28;20636;-50
2021/12/05 10:06:46;;;;;;;57.60;33.97;;;2.40;51.70;;;;;;6253044;28;20249;-59
2021/12/05 10:10:10;;;;;;;53.17;33.83;;;2.40;51.80;;;;;;6252077;28;20328;-57
2021/12/05 10:13:21;;;;;;;57.90;36.80;;;2.40;51.50;;;;;;6252136;28;20343;-57
2021/12/05 10:16:53;;;;;;;55.87;34.37;;;2.70;51.20;;;;;;6251033;28;20272;-55
2021/12/05 10:34:01;;;;;;;63.80;36.37;;;2.60;50.70;;;;;;6190970;28;20260;-56
2021/12/05 10:37:13;;;;;;;57.40;35.17;;;2.80;50.60;;;;;;6233652;28;20262;-56
2021/12/05 10:40:22;;;;;;;53.67;32.97;;;2.70;51.00;;;;;;6235124;28;20231;-56
2021/12/05 10:43:27;;;;;;;59.07;35.60;;;2.80;51.70;;;;;;6236061;28;20324;-57
2021/12/05 10:46:31;;;;;;;60.03;36.10;;;2.90;51.40;;;;;;6226833;28;21221;-56
2021/12/05 10:49:35;;;;;;;54.30;34.10;;;2.70;49.20;;;;;;6208191;28;20461;-55
2021/12/05 10:52:38;;;;;;;58.73;35.03;;;2.90;49.60;;;;;;6212576;28;20250;-56
2021/12/05 10:55:41;;;;;;;54.03;34.27;;;2.80;48.20;;;;;;6218751;28;20242;-56
2021/12/05 10:58:49;;;;;;;51.30;32.63;;;2.80;48.90;;;;;;6214626;28;20273;-57
2021/12/05 11:01:54;;;;;;;53.43;33.57;;;2.80;49.10;;;;;;6214183;28;20239;-56
2021/12/05 11:04:59;;;;;;;60.57;33.77;;;3.00;50.30;;;;;;6217982;28;20242;-55
2021/12/05 11:08:01;;;;;;;58.17;36.40;;;2.90;50.90;;;;;;6214514;28;20339;-55
2021/12/05 11:11:09;;;;;;;57.43;35.40;;;2.90;51.50;;;;;;6214972;28;20361;-56
2021/12/05 11:14:16;;;;;;;50.07;32.57;;;3.00;50.40;;;;;;6214189;28;20717;-56
2021/12/05 11:17:21;;;;;;;56.33;34.50;;;2.90;49.70;;;;;;6217438;28;21025;-57
2021/12/05 11:20:31;;;;;;;50.57;31.63;;;2.90;52.00;;;;;;6211977;28;20679;-54
2021/12/05 11:23:34;;;;;;;58.20;35.03;;;2.80;51.20;;;;;;6216247;28;20341;-54
2021/12/05 11:26:40;;;;;;;53.03;32.77;;;3.20;50.70;;;;;;6216643;28;21016;-55
2021/12/05 11:29:48;;;;;;;53.33;33.67;;;3.30;50.20;;;;;;6212137;28;20238;-56
2021/12/05 11:32:52;;;;;;;52.07;34.37;;;3.20;49.00;;;;;;6216391;28;20373;-54
2021/12/05 11:35:59;;;;;;;47.87;31.50;;;3.10;48.20;;;;;;6216473;28;20280;-56
2021/12/05 11:39:20;;;;;;;51.63;32.50;;;2.80;48.80;;;;;;6218674;28;20242;-56
2021/12/05 11:42:23;;;;;;;58.33;34.67;;;2.80;49.40;;;;;;6216183;28;20287;-54
2021/12/05 11:45:25;;;;;;;57.17;35.63;;;3.10;47.70;;;;;;6215690;28;20787;-54
2021/12/05 11:48:31;;;;;;;52.77;33.73;;;2.90;47.90;;;;;;6209536;28;20238;-55
2021/12/05 11:51:40;;;;;;;54.27;34.67;;;2.80;48.60;;;;;;6214966;28;20230;-55
2021/12/05 11:54:46;;;;;;;62.07;38.00;;;2.90;49.70;;;;;;6218312;28;20333;-55
2021/12/05 11:57:52;;;;;;;57.83;37.13;;;3.20;50.00;;;;;;6231402;28;20258;-56
2021/12/05 12:01:01;;;;;;;54.30;35.43;;;2.90;49.00;;;;;;6233151;28;20741;-55
2021/12/05 12:04:05;;;;;;;56.67;35.60;;;2.90;49.70;;;;;;6239706;28;20239;-54
2021/12/05 12:07:13;;;;;;;56.90;35.60;;;2.90;48.80;;;;;;6228337;28;20243;-56
2021/12/05 12:10:21;;;;;;;57.37;35.03;;;2.90;49.10;;;;;;6222606;28;20242;-54
2021/12/05 12:13:28;;;;;;;54.90;35.17;;;2.80;49.10;;;;;;6228835;28;20266;-56
2021/12/05 12:16:33;;;;;;;58.37;35.40;;;2.90;49.50;;;;;;6231564;28;20381;-55
2021/12/05 12:19:37;;;;;;;56.03;34.57;;;2.80;49.40;;;;;;6225596;28;20874;-55
2021/12/05 12:22:41;;;;;;;55.00;34.00;;;2.90;48.00;;;;;;6229517;28;20231;-57
2021/12/05 12:25:50;;;;;;;50.70;32.83;;;2.90;47.60;;;;;;6232088;28;21058;-55
2021/12/05 12:28:55;;;;;;;55.00;35.37;;;3.00;47.90;;;;;;6228832;28;20966;-57
2021/12/05 12:32:07;;;;;;;57.63;35.83;;;2.80;47.50;;;;;;6236563;28;20237;-54
2021/12/05 12:35:12;;;;;;;55.10;35.80;;;2.90;47.80;;;;;;6233176;28;20373;-59
2021/12/05 12:38:23;;;;;;;59.80;37.47;;;2.80;47.70;;;;;;6240251;28;20731;-55
2021/12/05 12:41:26;;;;;;;55.97;36.90;;;3.10;47.90;;;;;;6226903;28;20323;-55
2021/12/05 12:44:30;;;;;;;58.60;35.93;;;2.90;47.50;;;;;;6231392;28;20231;-56
2021/12/05 12:47:35;;;;;;;60.10;36.37;;;3.20;48.00;;;;;;6233343;28;20250;-54
2021/12/05 12:50:50;;;;;;;54.13;33.40;;;3.00;47.70;;;;;;6230125;28;20678;-55
2021/12/05 12:53:57;;;;;;;57.83;34.80;;;3.20;46.20;;;;;;6234390;28;20281;-54
2021/12/05 12:57:04;;;;;;;55.60;36.07;;;3.10;46.80;;;;;;6233061;28;20258;-54
2021/12/05 13:00:11;;;;;;;55.37;36.10;;;2.90;45.80;;;;;;6232446;28;20769;-55
2021/12/05 13:03:39;;;;;;;52.43;33.70;;;3.00;44.10;;;;;;6234467;28;20330;-55
2021/12/05 13:10:09;;;;;;;56.20;34.90;;;3.00;44.40;;;;;;6232539;28;20313;-56
2021/12/05 13:13:16;;;;;;;54.37;34.87;;;2.90;45.10;;;;;;6233339;28;20250;-53
2021/12/05 13:16:22;;;;;;;50.40;32.53;;;3.10;45.50;;;;;;6231951;28;20830;-56
2021/12/05 13:19:26;;;;;;;54.40;34.90;;;2.90;45.50;;;;;;6231438;28;20247;-55
2021/12/05 13:22:29;;;;;;;51.50;32.57;;;2.90;43.80;;;;;;6233805;28;20239;-53
2021/12/05 13:25:55;;;;;;;53.27;34.03;;;2.80;42.00;;;;;;6233057;28;20777;-55
2021/12/05 13:29:10;;;;;;;52.03;32.03;;;2.70;43.50;;;;;;6231711;28;20580;-54
2021/12/05 13:32:17;;;;;;;45.20;29.63;;;2.80;43.90;;;;;;6220953;28;20771;-53
2021/12/05 13:35:25;;;;;;;50.17;31.30;;;2.80;44.10;;;;;;6232443;28;20246;-54
2021/12/05 13:38:32;;;;;;;53.73;33.90;;;3.00;43.70;;;;;;6233353;28;20243;-54
2021/12/05 13:41:37;;;;;;;54.37;35.60;;;2.80;43.80;;;;;;6226896;28;20322;-54
2021/12/05 13:45:19;;;;;;;55.00;33.70;;;2.80;43.00;;;;;;6233091;28;20509;-53
2021/12/05 13:48:26;;;;;;;57.13;35.73;;;2.80;43.60;;;;;;6213112;28;20234;-53
2021/12/05 13:51:28;;;;;;;55.17;35.57;;;3.00;43.10;;;;;;6231686;28;20361;-56
2021/12/05 13:54:31;;;;;;;60.63;35.37;;;2.90;42.90;;;;;;6225178;28;20298;-55
2021/12/05 13:57:35;;;;;;;57.47;36.97;;;2.90;43.20;;;;;;6232803;28;20244;-54
2021/12/05 14:00:39;;;;;;;63.43;36.90;;;2.80;43.20;;;;;;6225913;28;20759;-55
2021/12/05 14:04:07;;;;;;;62.43;36.30;;;2.80;43.10;;;;;;6231381;28;20242;-54
2021/12/05 14:07:12;;;;;;;61.60;37.60;;;2.90;44.80;;;;;;6233885;28;20241;-54
2021/12/05 14:10:15;;;;;;;60.80;36.57;;;2.80;43.10;;;;;;6232814;28;20242;-55
2021/12/05 14:13:22;;;;;;;63.33;37.97;;;2.80;43.60;;;;;;6234586;28;20300;-53
2021/12/05 14:16:32;;;;;;;62.20;37.80;;;2.80;43.50;;;;;;6233040;28;20325;-54
2021/12/05 14:19:37;;;;;;;59.63;35.10;;;2.80;45.10;;;;;;6230108;28;24315;-54
2021/12/05 14:22:43;;;;;;;63.77;38.13;;;2.90;44.50;;;;;;6237273;28;20242;-54
2021/12/05 14:25:47;;;;;;;59.70;34.67;;;2.70;44.80;;;;;;6238176;28;20326;-54
2021/12/05 14:28:57;;;;;;;58.23;37.27;;;2.70;44.00;;;;;;6234207;28;20227;-54
2021/12/05 14:32:06;;;;;;;50.57;32.67;;;2.70;43.20;;;;;;6244715;28;20343;-54
2021/12/05 14:35:12;;;;;;;56.33;35.17;;;2.80;43.80;;;;;;6237871;28;20277;-54
2021/12/05 14:38:16;;;;;;;57.77;34.90;;;2.70;42.80;;;;;;6237632;28;20273;-54
2021/12/05 14:41:30;;;;;;;56.40;34.43;;;2.70;43.10;;;;;;6237365;28;20455;-53
2021/12/05 14:44:35;;;;;;;55.37;35.03;;;2.80;43.00;;;;;;6239713;28;20379;-53
2021/12/05 14:47:41;;;;;;;53.63;33.27;;;2.70;43.60;;;;;;6229768;28;20380;-55
2021/12/05 14:50:44;;;;;;;53.43;34.77;;;2.90;43.20;;;;;;6237037;28;20325;-58
2021/12/05 14:53:47;;;;;;;56.13;34.70;;;2.60;44.10;;;;;;6237031;28;20267;-56
2021/12/05 14:56:50;;;;;;;54.93;34.77;;;2.60;44.20;;;;;;6230029;28;20293;-55
2021/12/05 15:00:05;;;;;;;51.33;32.43;;;2.70;44.80;;;;;;6241830;28;20432;-55
2021/12/05 15:03:13;;;;;;;52.40;33.37;;;2.50;44.30;;;;;;6234763;28;20369;-56
2021/12/05 15:06:17;;;;;;;49.87;33.27;;;2.70;43.50;;;;;;6239908;28;20329;-60
2021/12/05 15:09:24;;;;;;;51.90;33.03;;;2.60;43.50;;;;;;6224754;28;20702;-56
2021/12/05 15:12:30;;;;;;;55.13;33.63;;;2.70;44.70;;;;;;6243124;28;20316;-53
2021/12/05 15:15:34;;;;;;;58.13;36.47;;;2.70;43.90;;;;;;6235063;28;20609;-53
2021/12/05 15:18:39;;;;;;;58.57;35.77;;;2.50;44.00;;;;;;6232744;28;20241;-55
2021/12/05 15:21:42;;;;;;;54.53;34.27;;;2.50;43.80;;;;;;6239109;28;20865;-55
2021/12/05 15:24:51;;;;;;;54.97;33.83;;;2.70;45.10;;;;;;6240070;28;20824;-56
2021/12/05 15:27:54;;;;;;;56.90;35.80;;;2.70;45.10;;;;;;6239466;28;20247;-54
2021/12/05 15:30:59;;;;;;;58.00;34.93;;;2.60;45.50;;;;;;6242672;28;20292;-55
2021/12/05 15:34:02;;;;;;;59.17;34.43;;;2.50;45.20;;;;;;6238324;28;20247;-55
2021/12/05 15:37:12;;;;;;;64.30;37.33;;;2.50;45.50;;;;;;6233712;28;20798;-54
2021/12/05 15:40:17;;;;;;;58.90;36.77;;;2.60;45.30;;;;;;6234877;28;20384;-56
2021/12/05 15:43:22;;;;;;;56.13;36.07;;;2.60;44.80;;;;;;6236911;28;20249;-54
2021/12/05 15:46:29;;;;;;;59.50;35.97;;;2.60;46.30;;;;;;6232822;28;20833;-55
2021/12/05 15:49:43;;;;;;;60.63;36.33;;;2.80;45.00;;;;;;6209653;28;20883;-54
2021/12/05 15:52:48;;;;;;;61.03;36.77;;;2.50;45.30;;;;;;6208585;28;20238;-60
2021/12/05 15:55:58;;;;;;;59.07;35.43;;;2.50;44.70;;;;;;6210150;28;20311;-55
2021/12/05 15:59:07;;;;;;;62.80;37.63;;;2.40;45.80;;;;;;6215187;28;20758;-54
2021/12/05 16:02:11;;;;;;;65.60;37.23;;;2.40;46.40;;;;;;6203541;28;20231;-56
2021/12/05 16:05:22;;;;;;;66.57;38.73;;;2.40;46.80;;;;;;6218158;28;20311;-55
2021/12/05 16:08:29;;;;;;;57.03;37.20;;;2.40;47.30;;;;;;6208388;28;20488;-55
2021/12/05 16:11:32;;;;;;;63.20;37.40;;;2.30;47.10;;;;;;6200130;28;20235;-54
2021/12/05 16:14:37;;;;;;;67.43;39.10;;;2.30;47.10;;;;;;6207977;28;20299;-56
2021/12/05 16:17:42;;;;;;;62.83;38.17;;;2.40;47.30;;;;;;6204587;28;20891;-54
2021/12/05 16:20:47;;;;;;;73.43;38.57;;;2.40;47.50;;;;;;6214215;28;20373;-55
2021/12/05 16:23:51;;;;;;;67.70;38.57;;;2.30;47.80;;;;;;6218211;28;20699;-57
2021/12/05 16:26:53;;;;;;;71.67;40.73;;;2.60;48.00;;;;;;6210344;28;20238;-55
2021/12/05 16:29:56;;;;;;;67.80;38.37;;;2.20;47.40;;;;;;6206406;28;20677;-55
2021/12/05 16:33:02;;;;;;;64.10;38.27;;;2.40;47.50;;;;;;6208884;28;20805;-54
2021/12/05 16:36:07;;;;;;;65.97;36.90;;;2.40;48.20;;;;;;6205269;28;20456;-55
2021/12/05 16:39:15;;;;;;;60.53;35.57;;;2.50;48.10;;;;;;6215037;28;20487;-54
2021/12/05 16:42:20;;;;;;;66.47;36.27;;;2.50;48.60;;;;;;6222142;28;20324;-54
2021/12/05 16:45:22;;;;;;;65.80;35.80;;;2.60;48.90;;;;;;6217358;28;20295;-54
2021/12/05 16:48:28;;;;;;;64.77;36.53;;;2.40;47.20;;;;;;6217525;28;20280;-58
2021/12/05 16:51:34;;;;;;;70.73;37.57;;;2.20;47.80;;;;;;6214123;28;20238;-55
2021/12/05 16:54:43;;;;;;;64.77;35.40;;;2.00;47.90;;;;;;6223631;28;20432;-55
2021/12/05 16:57:56;;;;;;;63.13;36.00;;;2.40;47.40;;;;;;6212074;28;20661;-56
2021/12/05 17:00:58;;;;;;;66.20;36.73;;;2.30;47.60;;;;;;6216208;28;20702;-56
2021/12/05 17:04:03;;;;;;;65.33;35.57;;;2.40;48.90;;;;;;6209916;28;20235;-55
2021/12/05 17:07:08;;;;;;;66.83;37.00;;;2.10;49.00;;;;;;6217199;28;20246;-55
2021/12/05 17:10:31;;;;;;;72.30;37.63;;;2.20;48.90;;;;;;6205434;28;20287;-57
2021/12/05 17:13:35;;;;;;;75.57;35.90;;;2.50;49.20;;;;;;6230518;28;20241;-56
2021/12/05 17:16:42;;;;;;;69.97;37.27;;;2.40;49.40;;;;;;6222960;28;20231;-55
2021/12/05 17:19:48;;;;;;;71.13;37.03;;;2.50;49.90;;;;;;6226717;28;20299;-55
2021/12/05 17:22:57;;;;;;;71.13;37.20;;;2.30;49.20;;;;;;6229599;28;20238;-56
2021/12/05 17:26:16;;;;;;;70.93;37.67;;;2.30;50.70;;;;;;6234936;28;20238;-55
2021/12/05 17:29:21;;;;;;;71.30;38.00;;;2.30;50.60;;;;;;6227511;28;20245;-55
2021/12/05 17:32:24;;;;;;;71.43;41.23;;;2.30;50.00;;;;;;6238125;28;20238;-55
2021/12/05 17:35:29;;;;;;;71.27;38.00;;;2.40;49.70;;;;;;6233136;28;20240;-55
2021/12/05 17:38:34;;;;;;;66.23;37.70;;;2.30;49.40;;;;;;6232734;28;20277;-56
2021/12/05 17:41:38;;;;;;;77.00;40.37;;;2.50;49.90;;;;;;6229082;28;20603;-53
2021/12/05 17:44:42;;;;;;;72.60;39.50;;;2.40;49.80;;;;;;6231079;28;21150;-56
2021/12/05 17:47:45;;;;;;;80.13;40.43;;;2.40;50.30;;;;;;6235436;28;20316;-54
2021/12/05 17:50:52;;;;;;;74.63;39.50;;;2.30;50.50;;;;;;6241259;28;20244;-56
2021/12/05 17:53:57;;;;;;;75.10;41.17;;;2.20;50.70;;;;;;6239641;28;20234;-55
2021/12/05 17:57:08;;;;;;;77.40;42.10;;;2.20;50.20;;;;;;6235310;28;20235;-54
2021/12/05 18:00:21;;;;;;;80.30;41.90;;;2.20;50.90;;;;;;6235424;28;20250;-55
2021/12/05 18:03:24;;;;;;;82.57;43.47;;;2.30;49.80;;;;;;6236027;28;20577;-56
2021/12/05 18:06:28;;;;;;;80.40;43.23;;;2.30;50.00;;;;;;6238113;28;20330;-57
2021/12/05 18:09:31;;;;;;;79.20;42.63;;;2.30;50.20;;;;;;6242841;28;20317;-55
2021/12/05 18:12:35;;;;;;;80.77;43.93;;;2.60;49.50;;;;;;6235217;28;20230;-55
2021/12/05 18:15:46;;;;;;;78.30;42.47;;;2.40;49.70;;;;;;6232453;28;20239;-56
2021/12/05 18:18:49;;;;;;;82.83;43.70;;;2.40;48.60;;;;;;6240231;28;20400;-55
2021/12/05 18:21:53;;;;;;;81.10;42.47;;;2.30;48.80;;;;;;6237589;28;20230;-54
2021/12/05 18:24:56;;;;;;;74.03;40.37;;;2.60;49.40;;;;;;6239133;28;20246;-55
2021/12/05 18:27:59;;;;;;;71.73;41.23;;;2.40;49.30;;;;;;6235885;28;20408;-56
2021/12/05 18:31:02;;;;;;;69.60;39.93;;;2.40;48.90;;;;;;6229279;28;20606;-55
2021/12/05 18:34:08;;;;;;;70.20;40.73;;;2.40;49.30;;;;;;6236372;28;20429;-56
2021/12/05 18:37:13;;;;;;;69.07;40.50;;;2.30;48.50;;;;;;6242216;28;20251;-54
2021/12/05 18:40:18;;;;;;;68.37;38.90;;;2.30;47.70;;;;;;6234180;28;20285;-56
2021/12/05 18:43:25;;;;;;;65.50;38.03;;;2.30;47.10;;;;;;6229009;28;20237;-55
2021/12/05 18:46:28;;;;;;;68.73;40.07;;;2.50;46.80;;;;;;6234614;28;20488;-54
2021/12/05 18:49:31;;;;;;;66.10;39.73;;;2.50;45.90;;;;;;6236547;28;20242;-55
2021/12/05 18:52:36;;;;;;;74.97;42.27;;;2.30;45.10;;;;;;6239285;28;20262;-56
2021/12/05 18:55:39;;;;;;;72.53;42.30;;;2.30;46.40;;;;;;6238551;28;20234;-54
2021/12/05 18:58:43;;;;;;;68.87;41.53;;;2.10;44.60;;;;;;6243264;28;20782;-55
2021/12/05 19:05:10;;;;;;;71.83;42.63;;;2.30;45.10;;;;;;6239467;28;20375;-54
2021/12/05 19:08:31;;;;;;;66.27;39.83;;;2.40;45.40;;;;;;6239602;28;20325;-55
2021/12/05 19:11:45;;;;;;;67.60;40.80;;;2.30;45.60;;;;;;6238507;28;20365;-55
2021/12/05 19:14:51;;;;;;;70.70;40.17;;;2.30;45.90;;;;;;6243117;28;20242;-56
2021/12/05 19:17:55;;;;;;;68.33;40.37;;;2.30;46.90;;;;;;6232394;28;20619;-56
2021/12/05 19:20:58;;;;;;;59.10;39.50;;;2.30;46.60;;;;;;6238561;28;20238;-56
2021/12/05 19:24:02;;;;;;;64.87;39.17;;;2.10;45.40;;;;;;6241514;28;20241;-54
2021/12/05 19:27:06;;;;;;;68.33;41.23;;;2.20;45.60;;;;;;6229793;28;20237;-55
2021/12/05 19:30:12;;;;;;;69.97;41.33;;;2.40;46.40;;;;;;6231058;28;20632;-54
2021/12/05 19:33:17;;;;;;;66.27;41.07;;;2.20;45.30;;;;;;6240307;28;20694;-54
2021/12/05 19:36:21;;;;;;;68.53;41.53;;;2.40;46.30;;;;;;6239193;28;20345;-56
2021/12/05 19:39:27;;;;;;;61.87;40.97;;;2.10;44.80;;;;;;6244684;28;20592;-56